Time;durP1;ratioP1;P1;durP2;ratioP2;P2;SDS_P1;SDS_P2;PMS_P1;PMS_P2;Temp;Humidity;BMP_temperature;BMP_pressure;BME280_temperature;BME280_humidity;BME280_pressure;Samples;Min_cycle;Max_cycle;Signal;HPM_P1;HPM_P2
2022/10/22 00:01:12;;;;;;;;;;;;;;;9.05;82.04;100208.56;85952;1300;82719;-57
2022/10/22 00:03:20;;;;;;;;;;;;;;;9.08;82.03;100209.67;85913;1300;98460;-57
2022/10/22 00:05:27;;;;;;;;;;;;;;;9.07;82.16;100207.60;85932;1298;89274;-58
2022/10/22 00:07:34;;;;;;;;;;;;;;;9.07;82.25;100210.16;85932;1301;94972;-59
2022/10/22 00:09:42;;;;;;;;;;;;;;;9.13;82.27;100207.42;85933;1292;79497;-58
2022/10/22 00:11:49;;;;;;;;;;;;;;;9.13;82.35;100203.80;85985;1291;80989;-57
2022/10/22 00:13:57;;;;;;;;;;;;;;;9.13;82.37;100197.56;85992;1299;99633;-57
2022/10/22 00:16:06;;;;;;;;;;;;;;;9.15;82.37;100196.36;85983;1300;88971;-58
2022/10/22 00:18:13;;;;;;;;;;;;;;;9.18;82.31;100189.16;85960;1294;94472;-57
2022/10/22 00:20:21;;;;;;;;;;;;;;;9.19;82.34;100188.53;85926;1301;82248;-57
2022/10/22 00:22:28;;;;;;;;;;;;;;;9.21;82.50;100192.09;85958;1300;79655;-58
2022/10/22 00:24:37;;;;;;;;;;;;;;;9.24;82.67;100191.10;85898;1300;97972;-58
2022/10/22 00:26:44;;;;;;;;;;;;;;;9.25;82.68;100193.05;85936;1300;88223;-58
2022/10/22 00:28:53;;;;;;;;;;;;;;;9.26;82.79;100192.20;85884;1300;95010;-58
2022/10/22 00:31:02;;;;;;;;;;;;;;;9.28;82.72;100185.59;85899;1294;81993;-58
2022/10/22 00:33:10;;;;;;;;;;;;;;;9.31;82.74;100181.66;85917;1302;83696;-59
2022/10/22 00:35:19;;;;;;;;;;;;;;;9.36;82.94;100180.19;85894;1294;99294;-59
2022/10/22 00:37:27;;;;;;;;;;;;;;;9.38;82.81;100179.14;85918;1294;88368;-57
2022/10/22 00:39:34;;;;;;;;;;;;;;;9.37;82.79;100175.19;85902;1297;95739;-56
2022/10/22 00:41:40;;;;;;;;;;;;;;;9.37;82.89;100170.36;85876;1301;80622;-57
2022/10/22 00:44:00;;;;;;;;;;;;;;;9.37;83.00;100169.09;85889;1294;82745;-57
2022/10/22 00:46:09;;;;;;;;;;;;;;;9.37;82.90;100165.52;85951;1295;98365;-57
2022/10/22 00:48:19;;;;;;;;;;;;;;;9.38;82.83;100165.16;85923;1294;87438;-56
2022/10/22 00:50:31;;;;;;;;;;;;;;;9.37;82.84;100160.92;85923;1301;95239;-56
2022/10/22 00:52:38;;;;;;;;;;;;;;;9.37;83.01;100160.55;85909;1302;82289;-57
2022/10/22 00:54:46;;;;;;;;;;;;;;;9.41;82.97;100161.55;85847;1300;81407;-58
2022/10/22 00:56:52;;;;;;;;;;;;;;;9.44;82.93;100161.35;85946;1299;98687;-59
2022/10/22 00:59:01;;;;;;;;;;;;;;;9.44;82.96;100160.52;85951;1300;88172;-58
2022/10/22 01:01:09;;;;;;;;;;;;;;;9.44;83.05;100157.23;85947;1294;94736;-58
2022/10/22 01:03:18;;;;;;;;;;;;;;;9.41;83.04;100155.92;85922;1297;81156;-58
2022/10/22 01:05:29;;;;;;;;;;;;;;;9.45;83.11;100150.04;85955;1301;81125;-57
2022/10/22 01:07:38;;;;;;;;;;;;;;;9.43;83.13;100144.70;85953;1300;99100;-58
2022/10/22 01:09:50;;;;;;;;;;;;;;;9.50;83.19;100136.13;85933;1300;89522;-58
2022/10/22 01:12:03;;;;;;;;;;;;;;;9.51;83.31;100138.58;85952;1301;94963;-58
2022/10/22 01:14:17;;;;;;;;;;;;;;;9.55;83.43;100143.52;85923;1300;80485;-57
2022/10/22 01:16:32;;;;;;;;;;;;;;;9.55;83.30;100147.66;85920;1300;82295;-58
2022/10/22 01:18:45;;;;;;;;;;;;;;;9.58;83.37;100151.69;85907;1300;98992;-57
2022/10/22 01:21:15;;;;;;;;;;;;;;;9.56;83.64;100149.47;85915;1294;87407;-57
2022/10/22 01:23:45;;;;;;;;;;;;;;;9.57;83.60;100140.85;85882;1292;95435;-58
2022/10/22 01:25:58;;;;;;;;;;;;;;;9.55;83.53;100134.02;85890;1300;81853;-58
2022/10/22 01:28:17;;;;;;;;;;;;;;;9.54;83.55;100137.50;85898;1294;82361;-59
2022/10/22 01:30:27;;;;;;;;;;;;;;;9.54;83.77;100136.62;85932;1301;100154;-58
2022/10/22 01:32:39;;;;;;;;;;;;;;;9.55;83.75;100131.45;85917;1301;88949;-58
2022/10/22 01:34:52;;;;;;;;;;;;;;;9.59;83.69;100128.05;85887;1297;95063;-58
2022/10/22 01:37:00;;;;;;;;;;;;;;;9.58;83.78;100126.63;85882;1300;81495;-59
2022/10/22 01:39:08;;;;;;;;;;;;;;;9.62;83.84;100127.74;85917;1294;82704;-58
2022/10/22 01:41:15;;;;;;;;;;;;;;;9.60;83.72;100125.77;85943;1300;100189;-59
2022/10/22 01:43:25;;;;;;;;;;;;;;;9.61;83.78;100122.23;85965;1300;88700;-57
2022/10/22 01:45:35;;;;;;;;;;;;;;;9.59;83.76;100124.66;85945;1295;93844;-58
2022/10/22 01:47:48;;;;;;;;;;;;;;;9.60;83.91;100127.15;85978;1300;79982;-58
2022/10/22 01:50:30;;;;;;;;;;;;;;;9.64;83.82;100130.27;85953;1300;82070;-59
2022/10/22 01:52:52;;;;;;;;;;;;;;;9.67;83.74;100131.05;85948;1298;99829;-57
2022/10/22 01:55:10;;;;;;;;;;;;;;;9.68;83.83;100137.48;85921;1295;89254;-57
2022/10/22 01:57:22;;;;;;;;;;;;;;;9.70;84.02;100138.59;85864;1291;95296;-57
2022/10/22 01:59:39;;;;;;;;;;;;;;;9.71;83.95;100134.63;85913;1300;80018;-58
2022/10/22 02:01:54;;;;;;;;;;;;;;;9.69;83.96;100132.80;85937;1298;82661;-57
2022/10/22 02:04:07;;;;;;;;;;;;;;;9.64;84.48;100130.61;85916;1291;97456;-57
2022/10/22 02:06:17;;;;;;;;;;;;;;;9.61;84.40;100122.93;85915;1298;88746;-57
2022/10/22 02:08:28;;;;;;;;;;;;;;;9.65;84.38;100119.94;85886;1298;94830;-58
2022/10/22 02:10:38;;;;;;;;;;;;;;;9.67;84.40;100115.53;85909;1302;81671;-58
2022/10/22 02:13:00;;;;;;;;;;;;;;;9.67;84.42;100118.96;85886;1301;81310;-59
2022/10/22 02:15:10;;;;;;;;;;;;;;;9.67;84.46;100114.49;85912;1295;99851;-57
2022/10/22 02:17:19;;;;;;;;;;;;;;;9.68;84.47;100114.39;85963;1300;88803;-58
2022/10/22 02:19:39;;;;;;;;;;;;;;;9.68;84.49;100116.80;85926;1300;93817;-58
2022/10/22 02:21:46;;;;;;;;;;;;;;;9.72;84.50;100111.85;85903;1300;82173;-59
2022/10/22 02:23:55;;;;;;;;;;;;;;;9.71;84.55;100113.80;85910;1302;82623;-57
2022/10/22 02:26:11;;;;;;;;;;;;;;;9.72;84.59;100119.61;85957;1301;100627;-58
2022/10/22 02:28:23;;;;;;;;;;;;;;;9.76;84.64;100112.64;85936;1298;89186;-57
2022/10/22 02:30:31;;;;;;;;;;;;;;;9.75;84.65;100112.58;85930;1298;92461;-58
2022/10/22 02:32:43;;;;;;;;;;;;;;;9.73;84.63;100116.35;85996;1302;82076;-58
2022/10/22 02:34:51;;;;;;;;;;;;;;;9.71;84.89;100120.64;85935;1301;82113;-58
2022/10/22 02:36:59;;;;;;;;;;;;;;;9.71;84.89;100128.02;85945;1292;99021;-58
2022/10/22 02:39:07;;;;;;;;;;;;;;;9.73;84.97;100118.59;85963;1300;89213;-58
2022/10/22 02:41:15;;;;;;;;;;;;;;;9.73;85.00;100119.66;85935;1295;95006;-58
2022/10/22 02:43:24;;;;;;;;;;;;;;;9.73;85.02;100125.77;85902;1301;80922;-57
2022/10/22 02:45:31;;;;;;;;;;;;;;;9.74;85.20;100121.66;85923;1294;80537;-57
2022/10/22 02:47:38;;;;;;;;;;;;;;;9.76;85.31;100119.91;85893;1295;98879;-57
2022/10/22 02:49:47;;;;;;;;;;;;;;;9.77;85.33;100115.69;85876;1295;88430;-58
2022/10/22 02:51:54;;;;;;;;;;;;;;;9.76;85.24;100122.06;85888;1289;93536;-58
2022/10/22 02:54:01;;;;;;;;;;;;;;;9.76;85.23;100121.97;85878;1301;79330;-58
2022/10/22 02:56:10;;;;;;;;;;;;;;;9.76;85.41;100123.05;85898;1295;82362;-58
2022/10/22 02:58:17;;;;;;;;;;;;;;;9.75;85.26;100119.35;85878;1290;99325;-58
2022/10/22 03:00:24;;;;;;;;;;;;;;;9.72;85.36;100120.29;85886;1298;89677;-58
2022/10/22 03:02:35;;;;;;;;;;;;;;;9.72;85.34;100120.12;85951;1302;94154;-58
2022/10/22 03:04:42;;;;;;;;;;;;;;;9.74;85.74;100121.87;85893;1300;81514;-57
2022/10/22 03:06:49;;;;;;;;;;;;;;;9.75;85.67;100115.66;85933;1298;82136;-58
2022/10/22 03:08:55;;;;;;;;;;;;;;;9.73;85.77;100110.45;85943;1300;98642;-58
2022/10/22 03:11:02;;;;;;;;;;;;;;;9.73;85.91;100114.57;85942;1298;86907;-58
2022/10/22 03:13:10;;;;;;;;;;;;;;;9.73;85.84;100111.33;85927;1294;94965;-57
2022/10/22 03:15:19;;;;;;;;;;;;;;;9.73;85.79;100106.11;85891;1300;82033;-57
2022/10/22 03:17:30;;;;;;;;;;;;;;;9.75;85.85;100109.52;85963;1298;79864;-57
2022/10/22 03:19:37;;;;;;;;;;;;;;;9.76;86.07;100102.92;85943;1300;99165;-58
2022/10/22 03:21:49;;;;;;;;;;;;;;;9.76;85.94;100101.10;85940;1292;88045;-59
2022/10/22 03:23:56;;;;;;;;;;;;;;;9.81;86.07;100099.71;85898;1294;94944;-59
2022/10/22 03:26:04;;;;;;;;;;;;;;;9.85;86.13;100102.15;85922;1300;82131;-59
2022/10/22 03:28:13;;;;;;;;;;;;;;;9.79;86.40;100101.77;85949;1298;81793;-58
2022/10/22 03:30:21;;;;;;;;;;;;;;;9.82;86.25;100097.55;85912;1300;98711;-58
2022/10/22 03:32:28;;;;;;;;;;;;;;;9.80;86.10;100098.58;85915;1300;88946;-59
2022/10/22 03:34:35;;;;;;;;;;;;;;;9.80;86.07;100099.91;85914;1298;95711;-58
2022/10/22 03:36:43;;;;;;;;;;;;;;;9.79;86.10;100098.56;85907;1294;81735;-59
2022/10/22 03:38:50;;;;;;;;;;;;;;;9.80;86.17;100104.11;85951;1300;81181;-60
2022/10/22 03:40:58;;;;;;;;;;;;;;;9.82;86.08;100109.80;85932;1294;98286;-60
2022/10/22 03:43:07;;;;;;;;;;;;;;;9.86;86.14;100115.73;85922;1301;88898;-57
2022/10/22 03:45:18;;;;;;;;;;;;;;;9.80;86.35;100119.66;85891;1303;95047;-58
2022/10/22 03:47:25;;;;;;;;;;;;;;;9.82;86.37;100122.67;85963;1300;82148;-59
2022/10/22 03:49:34;;;;;;;;;;;;;;;9.77;86.50;100128.14;85951;1301;80558;-58
2022/10/22 03:51:42;;;;;;;;;;;;;;;9.83;86.57;100128.25;85963;1300;99767;-58
2022/10/22 03:53:50;;;;;;;;;;;;;;;9.84;86.53;100121.11;85963;1298;89289;-58
2022/10/22 03:55:57;;;;;;;;;;;;;;;9.82;86.60;100114.74;85948;1302;94061;-59
2022/10/22 03:58:04;;;;;;;;;;;;;;;9.80;86.61;100104.15;85930;1294;82000;-58
2022/10/22 04:00:13;;;;;;;;;;;;;;;9.82;86.61;100096.61;85974;1300;81762;-57
2022/10/22 04:02:20;;;;;;;;;;;;;;;9.84;86.60;100097.84;85981;1295;99357;-58
2022/10/22 04:04:30;;;;;;;;;;;;;;;9.85;86.65;100103.94;85928;1294;87039;-57
2022/10/22 04:06:36;;;;;;;;;;;;;;;9.89;86.68;100112.16;85962;1302;94719;-58
2022/10/22 04:08:45;;;;;;;;;;;;;;;9.92;86.66;100121.84;85926;1293;82158;-57
2022/10/22 04:10:58;;;;;;;;;;;;;;;9.92;86.75;100122.77;85907;1301;81912;-57
2022/10/22 04:13:05;;;;;;;;;;;;;;;9.88;86.82;100114.81;85930;1298;98000;-57
2022/10/22 04:15:12;;;;;;;;;;;;;;;9.89;86.73;100111.16;85836;1300;87527;-58
2022/10/22 04:17:19;;;;;;;;;;;;;;;9.89;86.77;100109.63;85919;1298;95169;-57
2022/10/22 04:19:26;;;;;;;;;;;;;;;9.86;86.90;100102.08;85893;1298;80794;-58
2022/10/22 04:21:33;;;;;;;;;;;;;;;9.88;86.85;100101.15;85891;1301;80153;-58
2022/10/22 04:23:44;;;;;;;;;;;;;;;9.90;86.89;100100.22;85898;1298;99539;-58
2022/10/22 04:25:57;;;;;;;;;;;;;;;9.93;86.81;100094.77;85908;1298;87415;-58
2022/10/22 04:28:06;;;;;;;;;;;;;;;9.91;86.93;100083.51;85883;1300;94053;-58
2022/10/22 04:30:15;;;;;;;;;;;;;;;9.91;86.97;100079.80;85927;1298;82108;-58
2022/10/22 04:32:24;;;;;;;;;;;;;;;9.92;87.06;100074.01;85956;1294;82310;-57
2022/10/22 04:34:31;;;;;;;;;;;;;;;9.97;87.20;100076.75;85934;1294;99953;-58
2022/10/22 04:36:39;;;;;;;;;;;;;;;9.96;87.16;100075.70;85954;1300;89469;-56
2022/10/22 04:38:52;;;;;;;;;;;;;;;9.92;87.06;100075.33;85936;1298;94098;-57
2022/10/22 04:41:07;;;;;;;;;;;;;;;9.94;87.01;100071.48;85976;1298;80153;-58
2022/10/22 04:43:15;;;;;;;;;;;;;;;9.96;86.97;100065.99;86027;1295;81197;-58
2022/10/22 04:45:22;;;;;;;;;;;;;;;9.97;86.96;100061.15;85970;1294;98501;-58
2022/10/22 04:47:30;;;;;;;;;;;;;;;10.00;87.00;100059.04;85980;1294;87511;-58
2022/10/22 04:49:37;;;;;;;;;;;;;;;10.02;87.01;100060.52;85675;1301;403811;-59
2022/10/22 04:51:44;;;;;;;;;;;;;;;10.02;87.06;100054.80;85954;1300;81636;-58
2022/10/22 04:53:51;;;;;;;;;;;;;;;10.02;86.95;100060.58;85936;1301;82879;-58
2022/10/22 04:56:15;;;;;;;;;;;;;;;10.03;86.98;100057.00;85956;1297;98793;-58
2022/10/22 04:58:22;;;;;;;;;;;;;;;10.05;87.12;100064.33;85929;1300;87478;-57
2022/10/22 05:00:30;;;;;;;;;;;;;;;10.08;87.28;100065.48;85889;1300;95108;-57
2022/10/22 05:02:37;;;;;;;;;;;;;;;10.07;87.29;100066.52;85915;1300;79890;-54
2022/10/22 05:04:49;;;;;;;;;;;;;;;10.11;87.17;100071.85;85901;1299;82305;-58
2022/10/22 05:06:56;;;;;;;;;;;;;;;10.08;87.20;100070.62;85849;1300;98910;-58
2022/10/22 05:09:05;;;;;;;;;;;;;;;10.02;87.37;100071.98;85867;1300;88607;-59
2022/10/22 05:11:17;;;;;;;;;;;;;;;10.01;87.39;100071.61;85920;1301;94254;-58
2022/10/22 05:13:25;;;;;;;;;;;;;;;10.03;87.40;100073.64;85921;1294;80624;-57
2022/10/22 05:15:33;;;;;;;;;;;;;;;10.09;87.54;100075.70;85922;1301;81037;-58
2022/10/22 05:17:40;;;;;;;;;;;;;;;10.14;87.47;100071.90;85939;1294;97421;-58
2022/10/22 05:19:47;;;;;;;;;;;;;;;10.12;87.56;100079.30;85938;1294;88808;-58
2022/10/22 05:21:55;;;;;;;;;;;;;;;10.13;87.52;100080.64;85973;1301;94824;-58
2022/10/22 05:24:03;;;;;;;;;;;;;;;10.16;87.55;100085.26;85965;1301;80957;-57
2022/10/22 05:26:12;;;;;;;;;;;;;;;10.19;87.49;100084.95;85995;1300;80777;-58
2022/10/22 05:28:19;;;;;;;;;;;;;;;10.18;87.52;100093.16;85936;1293;96987;-58
2022/10/22 05:30:26;;;;;;;;;;;;;;;10.17;87.45;100089.25;85942;1292;88337;-58
2022/10/22 05:32:34;;;;;;;;;;;;;;;10.16;87.35;100089.61;85975;1300;95775;-59
2022/10/22 05:34:41;;;;;;;;;;;;;;;10.11;87.53;100092.04;85918;1294;82174;-59
2022/10/22 05:36:49;;;;;;;;;;;;;;;10.11;87.48;100086.59;85950;1298;82685;-57
2022/10/22 05:38:58;;;;;;;;;;;;;;;10.10;87.57;100086.00;85954;1297;99476;-58
2022/10/22 05:41:09;;;;;;;;;;;;;;;10.11;87.57;100085.48;85933;1298;86739;-58
2022/10/22 05:43:16;;;;;;;;;;;;;;;10.13;87.44;100084.96;85890;1294;95739;-57
2022/10/22 05:45:26;;;;;;;;;;;;;;;10.11;87.62;100083.48;85829;1295;80833;-58
2022/10/22 05:47:35;;;;;;;;;;;;;;;10.13;87.60;100083.69;85903;1301;82401;-57
2022/10/22 05:49:42;;;;;;;;;;;;;;;10.15;87.72;100078.06;85876;1294;99917;-57
2022/10/22 05:51:49;;;;;;;;;;;;;;;10.15;87.72;100075.86;85915;1300;87836;-59
2022/10/22 05:53:58;;;;;;;;;;;;;;;10.17;87.68;100076.38;85897;1294;94695;-58
2022/10/22 05:56:08;;;;;;;;;;;;;;;10.19;87.74;100076.80;85858;1301;79191;-58
2022/10/22 05:58:16;;;;;;;;;;;;;;;10.22;87.73;100075.91;85950;1300;82366;-58
2022/10/22 06:00:26;;;;;;;;;;;;;;;10.27;87.69;100068.73;85894;1301;100075;-57
2022/10/22 06:02:34;;;;;;;;;;;;;;;10.30;87.77;100067.77;85872;1294;91550;-59
2022/10/22 06:04:41;;;;;;;;;;;;;;;10.39;87.72;100072.27;85921;1295;95494;-59
2022/10/22 06:06:50;;;;;;;;;;;;;;;10.45;87.82;100080.14;85909;1301;81204;-57
2022/10/22 06:09:00;;;;;;;;;;;;;;;10.54;87.77;100083.70;85890;1302;82326;-59
2022/10/22 06:11:07;;;;;;;;;;;;;;;10.58;87.71;100087.17;85957;1301;98396;-57
2022/10/22 06:13:14;;;;;;;;;;;;;;;10.61;87.85;100083.77;85945;1294;87818;-58
2022/10/22 06:15:21;;;;;;;;;;;;;;;10.65;87.82;100089.88;85953;1298;95258;-58
2022/10/22 06:17:28;;;;;;;;;;;;;;;10.72;87.75;100092.95;85922;1298;79973;-57
2022/10/22 06:19:36;;;;;;;;;;;;;;;10.74;87.79;100085.63;85955;1294;81967;-58
2022/10/22 06:21:43;;;;;;;;;;;;;;;10.78;87.81;100093.42;85938;1293;99392;-58
2022/10/22 06:23:52;;;;;;;;;;;;;;;10.81;87.70;100092.29;85939;1294;87296;-58
2022/10/22 06:26:00;;;;;;;;;;;;;;;10.85;87.65;100089.30;85940;1298;95480;-57
2022/10/22 06:28:07;;;;;;;;;;;;;;;10.86;87.63;100092.77;85884;1278;79512;-59
2022/10/22 06:30:15;;;;;;;;;;;;;;;10.88;87.69;100103.59;85912;1294;82023;-58
2022/10/22 06:32:22;;;;;;;;;;;;;;;10.85;87.67;100105.48;85916;1301;100026;-58
2022/10/22 06:34:32;;;;;;;;;;;;;;;10.85;87.70;100107.44;85903;1300;89242;-58
2022/10/22 06:36:39;;;;;;;;;;;;;;;10.82;87.72;100108.21;85924;1300;95673;-58
2022/10/22 06:38:47;;;;;;;;;;;;;;;10.85;87.65;100105.65;85891;1294;82378;-58
2022/10/22 06:40:55;;;;;;;;;;;;;;;10.92;87.59;100114.42;85929;1300;82512;-57
2022/10/22 06:43:02;;;;;;;;;;;;;;;10.94;87.53;100111.90;85922;1300;99895;-59
2022/10/22 06:45:11;;;;;;;;;;;;;;;10.94;87.56;100102.84;85938;1301;87643;-56
2022/10/22 06:47:19;;;;;;;;;;;;;;;10.93;87.49;100107.48;85954;1300;94030;-57
2022/10/22 06:49:26;;;;;;;;;;;;;;;10.94;87.51;100115.46;85987;1298;82861;-56
2022/10/22 06:51:33;;;;;;;;;;;;;;;10.94;87.36;100121.08;85984;1298;82524;-57
2022/10/22 06:53:42;;;;;;;;;;;;;;;10.96;87.39;100120.02;85966;1294;98108;-57
2022/10/22 06:55:51;;;;;;;;;;;;;;;10.99;87.44;100119.50;85963;1294;88206;-58
2022/10/22 06:57:59;;;;;;;;;;;;;;;11.00;87.54;100114.06;85976;1294;93211;-57
2022/10/22 07:00:07;;;;;;;;;;;;;;;11.02;87.60;100109.04;85994;1301;82332;-58
2022/10/22 07:02:14;;;;;;;;;;;;;;;11.06;87.49;100106.27;85957;1301;82556;-60
2022/10/22 07:04:22;;;;;;;;;;;;;;;11.12;87.52;100116.91;85923;1300;98982;-59
2022/10/22 07:06:30;;;;;;;;;;;;;;;11.08;87.48;100127.08;85963;1300;87031;-56
2022/10/22 07:08:38;;;;;;;;;;;;;;;11.04;87.50;100136.41;85914;1294;93769;-57
2022/10/22 07:10:45;;;;;;;;;;;;;;;11.04;87.51;100143.35;85904;1300;82865;-57
2022/10/22 07:12:52;;;;;;;;;;;;;;;11.03;87.45;100146.48;85898;1294;82894;-57
2022/10/22 07:15:02;;;;;;;;;;;;;;;10.96;87.50;100144.93;85902;1300;99825;-57
2022/10/22 07:17:09;;;;;;;;;;;;;;;10.93;87.54;100144.41;85925;1294;89287;-58
2022/10/22 07:19:17;;;;;;;;;;;;;;;10.95;87.57;100144.14;85922;1297;94664;-57
2022/10/22 07:21:25;;;;;;;;;;;;;;;10.97;87.55;100146.77;85955;1301;81479;-58
2022/10/22 07:23:38;;;;;;;;;;;;;;;10.98;87.58;100152.09;85964;1294;82362;-58
2022/10/22 07:25:45;;;;;;;;;;;;;;;11.04;87.57;100150.14;85935;1295;98525;-58
2022/10/22 07:27:52;;;;;;;;;;;;;;;11.07;87.66;100155.29;85956;1294;89243;-59
2022/10/22 07:30:00;;;;;;;;;;;;;;;11.11;87.56;100155.76;85948;1294;94315;-58
2022/10/22 07:32:10;;;;;;;;;;;;;;;11.15;87.62;100152.11;85942;1298;81894;-58
2022/10/22 07:34:18;;;;;;;;;;;;;;;11.15;87.52;100144.50;85959;1298;82974;-63
2022/10/22 07:36:25;;;;;;;;;;;;;;;11.16;87.55;100141.05;85918;1293;98889;-58
2022/10/22 07:38:33;;;;;;;;;;;;;;;11.16;87.56;100133.83;85865;1300;88842;-57
2022/10/22 07:40:40;;;;;;;;;;;;;;;11.18;87.54;100129.04;85908;1301;94708;-57
2022/10/22 07:42:47;;;;;;;;;;;;;;;11.19;87.53;100128.56;85870;1301;82073;-58
2022/10/22 07:44:55;;;;;;;;;;;;;;;11.23;87.56;100132.45;85880;1300;80646;-57
2022/10/22 07:47:02;;;;;;;;;;;;;;;11.30;87.53;100133.52;85916;1292;98728;-58
2022/10/22 07:49:10;;;;;;;;;;;;;;;11.33;87.54;100134.83;85870;1294;87912;-58
2022/10/22 07:51:19;;;;;;;;;;;;;;;11.38;87.55;100133.27;85864;1293;95359;-56
2022/10/22 07:53:28;;;;;;;;;;;;;;;11.45;87.46;100133.14;85880;1294;79605;-57
2022/10/22 07:55:38;;;;;;;;;;;;;;;11.45;87.44;100133.39;85899;1294;82368;-56
2022/10/22 07:57:46;;;;;;;;;;;;;;;11.48;87.43;100136.02;85866;1294;98635;-57
2022/10/22 07:59:55;;;;;;;;;;;;;;;11.54;87.55;100140.80;85874;1298;86843;-57
2022/10/22 08:02:03;;;;;;;;;;;;;;;11.60;87.52;100137.73;85907;1301;93177;-57
2022/10/22 08:04:11;;;;;;;;;;;;;;;11.64;87.52;100140.29;85875;1300;82003;-59
2022/10/22 08:06:21;;;;;;;;;;;;;;;11.63;87.48;100140.36;85858;1298;80521;-59
2022/10/22 08:08:30;;;;;;;;;;;;;;;11.62;87.35;100146.29;85865;1301;98591;-56
2022/10/22 08:10:38;;;;;;;;;;;;;;;11.57;87.26;100145.75;85857;1294;90545;-57
2022/10/22 08:12:45;;;;;;;;;;;;;;;11.55;87.21;100141.96;85912;1294;94105;-58
2022/10/22 08:14:57;;;;;;;;;;;;;;;11.57;87.25;100142.98;85879;1294;81383;-58
2022/10/22 08:17:04;;;;;;;;;;;;;;;11.57;87.31;100144.27;85911;1294;82850;-57
2022/10/22 08:19:12;;;;;;;;;;;;;;;11.63;87.34;100150.98;85955;1300;99187;-58
2022/10/22 08:21:19;;;;;;;;;;;;;;;11.70;87.22;100154.99;85954;1301;85020;-59
2022/10/22 08:23:27;;;;;;;;;;;;;;;11.71;87.20;100156.83;85884;1295;93616;-59
2022/10/22 08:25:35;;;;;;;;;;;;;;;11.74;87.22;100159.13;85924;1294;80602;-59
2022/10/22 08:27:44;;;;;;;;;;;;;;;11.74;87.14;100157.55;85934;1294;82663;-58
2022/10/22 08:29:52;;;;;;;;;;;;;;;11.73;87.18;100157.84;85856;1295;98586;-58
2022/10/22 08:32:02;;;;;;;;;;;;;;;11.72;87.20;100160.41;85850;1294;88036;-58
2022/10/22 08:34:11;;;;;;;;;;;;;;;11.73;87.21;100160.54;85861;1295;92000;-58
2022/10/22 08:36:19;;;;;;;;;;;;;;;11.74;87.11;100160.09;85855;1295;82284;-59
2022/10/22 08:38:26;;;;;;;;;;;;;;;11.74;87.08;100163.77;85878;1301;81675;-58
2022/10/22 08:40:37;;;;;;;;;;;;;;;11.77;87.18;100158.95;85881;1295;98589;-58
2022/10/22 08:43:05;;;;;;;;;;;;;;;11.78;87.28;100156.83;85856;1301;87991;-58
2022/10/22 08:45:21;;;;;;;;;;;;;;;11.81;87.11;100157.88;85798;1294;93823;-58
2022/10/22 08:47:41;;;;;;;;;;;;;;;11.81;87.06;100153.92;85883;1294;81424;-58
2022/10/22 08:49:48;;;;;;;;;;;;;;;11.85;87.15;100152.06;85864;1294;81295;-59
2022/10/22 08:51:57;;;;;;;;;;;;;;;11.83;87.14;100154.01;85886;1293;99445;-58
2022/10/22 08:54:26;;;;;;;;;;;;;;;11.89;87.05;100154.15;85915;1294;88276;-58
2022/10/22 08:56:35;;;;;;;;;;;;;;;11.87;87.09;100156.52;85878;1294;95133;-58
2022/10/22 08:58:50;;;;;;;;;;;;;;;11.91;87.07;100159.44;85906;1294;79871;-58
2022/10/22 09:01:01;;;;;;;;;;;;;;;11.97;87.17;100161.70;85900;1294;82173;-59
2022/10/22 09:03:28;;;;;;;;;;;;;;;12.09;87.27;100160.25;85944;1294;99850;-58
2022/10/22 09:05:43;;;;;;;;;;;;;;;12.16;87.29;100169.25;85925;1287;86456;-66
2022/10/22 09:07:51;;;;;;;;;;;;;;;12.17;87.31;100173.20;85911;1294;94750;-58
2022/10/22 09:10:00;;;;;;;;;;;;;;;12.21;87.21;100174.42;85887;1293;81310;-58
2022/10/22 09:12:14;;;;;;;;;;;;;;;12.18;87.25;100181.34;85872;1298;82804;-58
2022/10/22 09:14:23;;;;;;;;;;;;;;;12.26;87.24;100185.85;85860;1294;99780;-58
2022/10/22 09:16:37;;;;;;;;;;;;;;;12.29;87.09;100184.57;85826;1294;87738;-58
2022/10/22 09:18:52;;;;;;;;;;;;;;;12.29;87.06;100186.23;85867;1294;93591;-58
2022/10/22 09:21:06;;;;;;;;;;;;;;;12.25;87.05;100187.95;85878;1301;81364;-58
2022/10/22 09:23:27;;;;;;;;;;;;;;;12.28;87.00;100186.73;85876;1294;81687;-57
2022/10/22 09:25:36;;;;;;;;;;;;;;;12.29;87.08;100183.66;85883;1293;97829;-58
2022/10/22 09:27:43;;;;;;;;;;;;;;;12.30;87.07;100179.37;85887;1295;89654;-59
2022/10/22 09:29:51;;;;;;;;;;;;;;;12.29;87.18;100175.00;85864;1294;94117;-58
2022/10/22 09:31:58;;;;;;;;;;;;;;;12.29;87.18;100171.56;85899;1295;81379;-59
2022/10/22 09:34:06;;;;;;;;;;;;;;;12.28;87.23;100170.98;85867;1301;82829;-58
2022/10/22 09:36:18;;;;;;;;;;;;;;;12.30;87.15;100168.53;85871;1293;99069;-58
2022/10/22 09:38:30;;;;;;;;;;;;;;;12.24;87.12;100168.77;85901;1294;88133;-58
2022/10/22 09:40:48;;;;;;;;;;;;;;;12.21;87.20;100162.69;85836;1295;95536;-59
2022/10/22 09:42:56;;;;;;;;;;;;;;;12.23;87.12;100163.93;85918;1294;79305;-58
2022/10/22 09:45:03;;;;;;;;;;;;;;;12.19;87.14;100164.44;85914;1294;80672;-59
2022/10/22 09:47:29;;;;;;;;;;;;;;;12.22;87.12;100163.73;85902;1294;99188;-58
2022/10/22 09:49:36;;;;;;;;;;;;;;;12.27;87.07;100158.31;85934;1290;89089;-57
2022/10/22 09:51:53;;;;;;;;;;;;;;;12.34;87.26;100157.15;85910;1301;94695;-59
2022/10/22 09:54:02;;;;;;;;;;;;;;;12.38;87.34;100157.30;85928;1294;80553;-59
2022/10/22 09:56:17;;;;;;;;;;;;;;;12.44;87.43;100151.41;85877;1294;81924;-58
2022/10/22 09:58:25;;;;;;;;;;;;;;;12.56;87.39;100152.71;85876;1294;98429;-59
2022/10/22 10:00:35;;;;;;;;;;;;;;;12.61;87.43;100152.98;85909;1301;88174;-58
2022/10/22 10:02:43;;;;;;;;;;;;;;;12.68;87.33;100150.95;85883;1292;95720;-58
2022/10/22 10:04:55;;;;;;;;;;;;;;;12.67;87.35;100161.34;85842;1294;82099;-58
2022/10/22 10:07:04;;;;;;;;;;;;;;;12.68;87.27;100164.23;85872;1285;83094;-58
2022/10/22 10:09:15;;;;;;;;;;;;;;;12.71;87.27;100158.21;85848;1291;98452;-59
2022/10/22 10:11:30;;;;;;;;;;;;;;;12.72;87.26;100151.25;85886;1292;88858;-58
2022/10/22 10:13:46;;;;;;;;;;;;;;;12.77;87.19;100153.75;85828;1294;95167;-59
2022/10/22 10:15:59;;;;;;;;;;;;;;;12.80;87.23;100155.50;85884;1300;82502;-58
2022/10/22 10:18:14;;;;;;;;;;;;;;;12.81;87.18;100155.92;85902;1294;82893;-58
2022/10/22 10:20:31;;;;;;;;;;;;;;;12.83;87.06;100159.17;85861;1300;99260;-58
2022/10/22 10:22:53;;;;;;;;;;;;;;;12.84;87.03;100162.09;85890;1278;88726;-58
2022/10/22 10:25:11;;;;;;;;;;;;;;;12.88;87.01;100163.50;85891;1294;93752;-58
2022/10/22 10:27:25;;;;;;;;;;;;;;;12.88;86.95;100169.27;85849;1295;81629;-58
2022/10/22 10:29:45;;;;;;;;;;;;;;;12.88;87.03;100174.10;85882;1294;81546;-58
2022/10/22 10:32:07;;;;;;;;;;;;;;;12.83;87.01;100178.15;85894;1294;100084;-58
2022/10/22 10:34:24;;;;;;;;;;;;;;;12.82;86.99;100171.68;85929;1294;88594;-58
2022/10/22 10:36:40;;;;;;;;;;;;;;;12.82;86.91;100164.63;85862;1300;93587;-58
2022/10/22 10:38:56;;;;;;;;;;;;;;;12.85;86.96;100162.92;85900;1294;82165;-58
2022/10/22 10:41:13;;;;;;;;;;;;;;;12.87;86.98;100166.46;85890;1295;83004;-58
2022/10/22 10:43:26;;;;;;;;;;;;;;;12.91;86.92;100173.73;85856;1301;99406;-58
2022/10/22 10:45:37;;;;;;;;;;;;;;;12.91;86.92;100176.94;85807;1294;88601;-58
2022/10/22 10:48:13;;;;;;;;;;;;;;;12.90;86.82;100181.73;85869;1294;95458;-58
2022/10/22 10:50:24;;;;;;;;;;;;;;;12.86;86.86;100182.36;85863;1294;80646;-58
2022/10/22 10:52:40;;;;;;;;;;;;;;;12.86;86.84;100178.56;85849;1294;82600;-59
2022/10/22 10:54:55;;;;;;;;;;;;;;;12.85;86.85;100181.61;85860;1301;99902;-58
2022/10/22 10:57:14;;;;;;;;;;;;;;;12.89;86.83;100188.88;85869;1291;87837;-58
2022/10/22 10:59:32;;;;;;;;;;;;;;;12.89;86.96;100185.52;85811;1301;92705;-59
2022/10/22 11:01:51;;;;;;;;;;;;;;;12.87;86.97;100184.95;85876;1301;80828;-58
2022/10/22 11:04:13;;;;;;;;;;;;;;;12.88;86.85;100177.19;85880;1287;82997;-57
2022/10/22 11:06:23;;;;;;;;;;;;;;;12.88;86.86;100176.32;85887;1301;97433;-58
2022/10/22 11:08:40;;;;;;;;;;;;;;;12.88;86.82;100173.10;85908;1294;87098;-58
2022/10/22 11:10:52;;;;;;;;;;;;;;;12.88;86.79;100169.72;85871;1294;93616;-57
2022/10/22 11:13:08;;;;;;;;;;;;;;;12.88;86.76;100161.13;85926;1294;81049;-57